createdAt,value
2019-05-11T00:00:28.474Z,77.12
2019-05-11T00:01:28.442Z,77.26
2019-05-11T00:02:28.439Z,77.56
2019-05-11T00:03:28.439Z,77.87
2019-05-11T00:04:28.448Z,77.76
2019-05-11T00:05:28.398Z,77.97
2019-05-11T00:06:28.394Z,78.38
2019-05-11T00:07:28.383Z,78.21
2019-05-11T00:08:28.378Z,78.52
2019-05-11T00:09:28.387Z,78.63
2019-05-11T00:10:28.349Z,78.56
2019-05-11T00:11:28.341Z,79.07
2019-05-11T00:12:28.379Z,79.17
2019-05-11T00:13:28.309Z,79.17
2019-05-11T00:14:28.303Z,79.38
2019-05-11T00:15:28.302Z,79.48
2019-05-11T00:16:28.279Z,79.17
2019-05-11T00:17:28.269Z,79.27
2019-05-11T00:18:28.261Z,79.72
2019-05-11T00:19:28.243Z,79.68
2019-05-11T00:20:28.252Z,79.99
2019-05-11T00:21:28.229Z,79.68
2019-05-11T00:22:28.220Z,79.68
2019-05-11T00:23:28.207Z,79.89
2019-05-11T00:24:29.550Z,79.79
2019-05-11T00:25:28.191Z,79.68
2019-05-11T00:26:28.176Z,79.68
2019-05-11T00:27:28.159Z,79.48
2019-05-11T00:28:28.156Z,79.79
2019-05-11T00:29:28.178Z,79.79
2019-05-11T00:30:28.149Z,79.79
2019-05-11T00:31:28.123Z,79.68
2019-05-11T00:32:28.105Z,79.89
2019-05-11T00:33:28.095Z,79.68
2019-05-11T00:34:28.091Z,79.79
2019-05-11T00:35:28.093Z,79.58
2019-05-11T00:36:28.117Z,79.68
2019-05-11T00:37:28.053Z,79.79
2019-05-11T00:38:28.040Z,79.58
2019-05-11T00:39:28.033Z,79.68
2019-05-11T00:40:28.073Z,79.48
2019-05-11T00:41:28.018Z,79.38
2019-05-11T00:42:28.011Z,79.38
2019-05-11T00:43:27.996Z,79.27
2019-05-11T00:44:27.976Z,79.68
2019-05-11T00:45:27.969Z,79.68
2019-05-11T00:46:27.978Z,79.34
2019-05-11T00:47:27.951Z,79.07
2019-05-11T00:48:27.949Z,79.44
2019-05-11T00:49:27.934Z,79.07
2019-05-11T00:50:38.630Z,79.07
2019-05-11T00:51:28.905Z,79.48
2019-05-11T00:52:27.898Z,79.48
2019-05-11T00:53:27.888Z,79.48
2019-05-11T00:54:27.877Z,79.58
2019-05-11T00:55:27.864Z,79.48
2019-05-11T00:56:27.867Z,79.48
2019-05-11T00:57:27.849Z,79.68
2019-05-11T00:58:27.837Z,79.89
2019-05-11T00:59:27.823Z,79.89
2019-05-11T01:00:27.817Z,79.79
2019-05-11T01:01:27.822Z,79.48
2019-05-11T01:02:27.787Z,79.68
2019-05-11T01:03:27.778Z,79.79
2019-05-11T01:04:27.799Z,79.79
2019-05-11T01:05:27.779Z,79.79
2019-05-11T01:06:27.743Z,79.89
2019-05-11T01:07:27.748Z,79.89
2019-05-11T01:08:27.726Z,79.79
2019-05-11T01:09:27.730Z,80.09
2019-05-11T01:10:41.187Z,79.75
2019-05-11T01:11:28.696Z,79.75
2019-05-11T01:12:27.695Z,79.68
2019-05-11T01:13:27.695Z,79.38
2019-05-11T01:14:27.699Z,79.38
2019-05-11T01:15:27.649Z,79.68
2019-05-11T01:16:27.646Z,79.79
2019-05-11T01:17:27.663Z,79.99
2019-05-11T01:18:27.621Z,80.19
2019-05-11T01:19:27.614Z,80.40
2019-05-11T01:20:27.592Z,80.51
2019-05-11T01:21:27.584Z,80.09
2019-05-11T01:22:27.578Z,80.64
2019-05-11T01:23:27.579Z,80.44
2019-05-11T01:24:27.558Z,80.74
2019-05-11T01:25:27.538Z,80.54
2019-05-11T01:26:27.532Z,80.95
2019-05-11T01:27:27.535Z,81.87
2019-05-11T01:28:27.531Z,81.40
2019-05-11T01:29:27.504Z,81.15
2019-05-11T01:30:27.500Z,81.15
2019-05-11T01:31:27.485Z,80.85
2019-05-11T01:32:27.472Z,81.60
2019-05-11T01:33:27.496Z,81.20
2019-05-11T01:34:27.449Z,81.20
2019-05-11T01:35:27.435Z,81.60
2019-05-11T01:36:27.434Z,81.91
2019-05-11T01:37:27.429Z,81.71
2019-05-11T01:38:27.402Z,81.81
2019-05-11T01:39:27.404Z,81.64
2019-05-11T01:40:27.390Z,82.15
2019-05-11T01:41:27.379Z,82.15
2019-05-11T01:42:27.377Z,81.85
2019-05-11T01:43:27.366Z,81.64
2019-05-11T01:44:27.349Z,81.60
2019-05-11T01:45:27.332Z,81.81
2019-05-11T01:46:27.318Z,81.60
2019-05-11T01:47:27.304Z,81.64
2019-05-11T01:48:27.305Z,81.64
2019-05-11T01:49:27.313Z,81.74
2019-05-11T01:50:27.280Z,81.85
2019-05-11T01:51:27.272Z,82.26
2019-05-11T01:52:27.254Z,82.46
2019-05-11T01:53:27.244Z,82.67
2019-05-11T01:54:27.239Z,82.67
2019-05-11T01:55:27.254Z,82.46
2019-05-11T01:56:27.213Z,82.46
2019-05-11T01:57:27.202Z,82.77
2019-05-11T01:58:27.189Z,82.77
2019-05-11T01:59:27.179Z,82.97
2019-05-11T02:00:27.195Z,82.56
2019-05-11T02:01:27.161Z,82.97
2019-05-11T02:02:27.156Z,83.12
2019-05-11T02:03:27.157Z,82.77
2019-05-11T02:04:27.128Z,82.87
2019-05-11T02:05:27.116Z,83.22
2019-05-11T02:06:27.123Z,83.53
2019-05-11T02:07:27.094Z,83.53
2019-05-11T02:08:27.088Z,83.63
2019-05-11T02:09:27.090Z,83.32
2019-05-11T02:10:27.061Z,83.53
2019-05-11T02:11:27.062Z,83.01
2019-05-11T02:12:27.047Z,82.91
2019-05-11T02:13:27.034Z,83.53
2019-05-11T02:14:27.033Z,83.42
2019-05-11T02:15:27.016Z,83.53
2019-05-11T02:16:27.020Z,83.01
2019-05-11T02:17:26.982Z,83.73
2019-05-11T02:18:26.974Z,83.63
2019-05-11T02:19:26.970Z,84.25
2019-05-11T02:20:26.976Z,84.45
2019-05-11T02:21:26.956Z,84.69
2019-05-11T02:22:26.935Z,84.14
2019-05-11T02:23:26.924Z,84.25
2019-05-11T02:24:26.907Z,84.45
2019-05-11T02:25:26.899Z,84.55
2019-05-11T02:26:26.912Z,84.66
2019-05-11T02:27:26.880Z,84.45
2019-05-11T02:28:26.865Z,84.76
2019-05-11T02:29:26.852Z,84.76
2019-05-11T02:30:26.860Z,83.94
2019-05-11T02:31:26.831Z,83.73
2019-05-11T02:32:26.846Z,84.66
2019-05-11T02:33:26.824Z,84.66
2019-05-11T02:34:26.806Z,84.66
2019-05-11T02:35:26.811Z,84.04
2019-05-11T02:36:26.778Z,83.83
2019-05-11T02:37:26.783Z,83.63
2019-05-11T02:38:26.771Z,83.53
2019-05-11T02:39:26.747Z,83.73
2019-05-11T02:40:26.739Z,83.39
2019-05-11T02:41:36.337Z,83.42
2019-05-11T02:42:27.729Z,82.91
2019-05-11T02:43:26.699Z,83.12
2019-05-11T02:44:26.699Z,83.53
2019-05-11T02:45:26.682Z,83.53
2019-05-11T02:46:26.696Z,83.32
2019-05-11T02:47:26.678Z,83.63
2019-05-11T02:48:26.651Z,83.32
2019-05-11T02:49:28.177Z,83.63
2019-05-11T02:50:26.631Z,83.53
2019-05-11T02:51:26.624Z,83.32
2019-05-11T02:52:26.627Z,83.53
2019-05-11T02:53:26.599Z,83.53
2019-05-11T02:54:26.592Z,83.53
2019-05-11T02:55:26.589Z,83.63
2019-05-11T02:56:26.561Z,83.32
2019-05-11T02:57:26.559Z,83.53
2019-05-11T02:58:26.540Z,83.22
2019-05-11T02:59:29.863Z,83.63
2019-05-11T03:00:26.550Z,83.32
2019-05-11T03:01:26.500Z,83.94
2019-05-11T03:02:26.502Z,83.53
2019-05-11T03:03:26.479Z,83.42
2019-05-11T03:04:26.478Z,83.83
2019-05-11T03:05:26.472Z,83.53
2019-05-11T03:06:26.477Z,83.73
2019-05-11T03:07:26.456Z,83.94
2019-05-11T03:08:26.437Z,83.73
2019-05-11T03:09:26.417Z,83.94
2019-05-11T03:10:26.413Z,83.94
2019-05-11T03:11:26.396Z,83.63
2019-05-11T03:12:26.415Z,83.94
2019-05-11T03:13:26.378Z,84.25
2019-05-11T03:14:26.365Z,84.45
2019-05-11T03:15:26.358Z,83.63
2019-05-11T03:16:26.349Z,83.73
2019-05-11T03:17:26.339Z,83.53
2019-05-11T03:18:26.356Z,83.73
2019-05-11T03:19:26.318Z,83.73
2019-05-11T03:20:26.297Z,83.83
2019-05-11T03:21:26.293Z,83.94
2019-05-11T03:22:26.279Z,83.73
2019-05-11T03:23:26.285Z,83.73
2019-05-11T03:24:26.259Z,83.63
2019-05-11T03:25:26.257Z,83.73
2019-05-11T03:26:26.246Z,83.94
2019-05-11T03:27:26.245Z,83.63
2019-05-11T03:28:26.237Z,83.28
2019-05-11T03:29:26.206Z,83.39
2019-05-11T03:30:26.215Z,83.59
2019-05-11T03:31:26.198Z,83.59
2019-05-11T03:32:26.169Z,83.49
2019-05-11T03:33:26.176Z,83.49
2019-05-11T03:34:26.147Z,83.59
2019-05-11T03:35:26.180Z,83.59
2019-05-11T03:36:26.153Z,83.49
2019-05-11T03:37:26.121Z,83.59
2019-05-11T03:38:26.120Z,83.49
2019-05-11T03:39:26.139Z,83.28
2019-05-11T03:40:26.084Z,82.87
2019-05-11T03:41:26.077Z,83.07
2019-05-11T03:42:26.062Z,82.73
2019-05-11T03:43:26.062Z,82.63
2019-05-11T03:44:26.049Z,82.73
2019-05-11T03:45:26.038Z,82.63
2019-05-11T03:46:26.023Z,82.39
2019-05-11T03:47:26.012Z,82.08
2019-05-11T03:48:26.020Z,82.01
2019-05-11T03:49:25.989Z,81.57
2019-05-11T03:50:25.990Z,81.67
2019-05-11T03:51:25.985Z,81.46
2019-05-11T03:52:25.951Z,81.71
2019-05-11T03:53:25.952Z,81.46
2019-05-11T03:54:25.942Z,81.36
2019-05-11T03:55:25.927Z,81.36
2019-05-11T03:56:25.917Z,80.95
2019-05-11T03:57:25.923Z,81.15
2019-05-11T03:58:26.894Z,81.22
2019-05-11T03:59:25.895Z,81.73
2019-05-11T04:00:25.869Z,80.81
2019-05-11T04:01:25.854Z,80.19
2019-05-11T04:02:25.852Z,80.51
2019-05-11T04:03:25.856Z,80.81
2019-05-11T04:04:25.846Z,80.51
2019-05-11T04:05:25.815Z,80.51
2019-05-11T04:06:25.804Z,80.81
2019-05-11T04:07:25.798Z,80.40
2019-05-11T04:08:25.791Z,80.74
2019-05-11T04:09:25.798Z,81.67
2019-05-11T04:10:25.957Z,81.57
2019-05-11T04:11:25.759Z,80.95
2019-05-11T04:12:34.668Z,81.36
2019-05-11T04:13:26.727Z,81.40
2019-05-11T04:14:25.739Z,81.46
2019-05-11T04:15:25.712Z,81.50
2019-05-11T04:16:25.704Z,81.77
2019-05-11T04:17:25.690Z,81.46
2019-05-11T04:18:25.678Z,81.71
2019-05-11T04:19:25.661Z,81.36
2019-05-11T04:20:25.690Z,81.40
2019-05-11T04:21:25.671Z,81.36
2019-05-11T04:22:25.639Z,80.95
2019-05-11T04:23:25.647Z,81.26
2019-05-11T04:24:25.616Z,81.46
2019-05-11T04:25:25.629Z,81.29
2019-05-11T04:26:25.609Z,81.50
2019-05-11T04:27:25.580Z,81.71
2019-05-11T04:28:25.574Z,80.85
2019-05-11T04:29:25.567Z,80.74
2019-05-11T04:30:25.552Z,80.74
2019-05-11T04:31:25.562Z,80.40
2019-05-11T04:32:25.539Z,80.51
2019-05-11T04:33:25.519Z,80.19
2019-05-11T04:34:25.518Z,80.30
2019-05-11T04:35:25.513Z,80.71
2019-05-11T04:36:25.499Z,80.30
2019-05-11T04:37:25.476Z,80.09
2019-05-11T04:38:25.473Z,79.79
2019-05-11T04:39:25.459Z,79.68
2019-05-11T04:40:25.451Z,79.89
2019-05-11T04:41:25.458Z,79.58
2019-05-11T04:42:25.423Z,79.89
2019-05-11T04:43:25.482Z,79.68
2019-05-11T04:44:25.397Z,79.79
2019-05-11T04:45:25.389Z,79.68
2019-05-11T04:46:25.392Z,79.48
2019-05-11T04:47:25.370Z,79.79
2019-05-11T04:48:25.418Z,79.79
2019-05-11T04:49:25.368Z,79.64
2019-05-11T04:50:25.465Z,79.24
2019-05-11T04:51:25.364Z,79.44
2019-05-11T04:52:25.331Z,79.34
2019-05-11T04:53:25.316Z,79.54
2019-05-11T04:54:25.305Z,79.34
2019-05-11T04:55:25.296Z,78.79
2019-05-11T04:56:25.282Z,78.83
2019-05-11T04:57:25.273Z,78.49
2019-05-11T04:58:25.249Z,78.69
2019-05-11T04:59:25.245Z,79.10
2019-05-11T05:00:25.234Z,78.59
2019-05-11T05:01:25.231Z,78.49
2019-05-11T05:02:27.237Z,78.38
2019-05-11T05:03:39.658Z,77.42
2019-05-11T05:04:26.179Z,78.04
2019-05-11T05:05:25.173Z,77.32
2019-05-11T05:06:25.172Z,77.32
2019-05-11T05:07:25.185Z,76.81
2019-05-11T05:08:26.433Z,76.67
2019-05-11T05:09:25.166Z,76.43
2019-05-11T05:10:25.114Z,76.12
2019-05-11T05:11:25.104Z,76.29
2019-05-11T05:12:25.099Z,75.99
2019-05-11T05:13:29.688Z,74.56
2019-05-11T05:14:26.081Z,75.17
2019-05-11T05:15:25.067Z,75.13
2019-05-11T05:16:25.052Z,74.46
2019-05-11T05:17:25.040Z,74.52
2019-05-11T05:18:25.053Z,74.63
2019-05-11T05:19:25.051Z,74.22
2019-05-11T05:20:25.018Z,73.88
2019-05-11T05:21:25.004Z,72.99
2019-05-11T05:22:27.950Z,73.06
2019-05-11T05:23:24.977Z,73.16
2019-05-11T05:24:24.985Z,72.52
2019-05-11T05:25:24.961Z,72.92
2019-05-11T05:26:24.955Z,71.33
2019-05-11T05:27:24.943Z,69.02
2019-05-11T05:28:24.927Z,68.62
2019-05-11T05:29:24.925Z,69.02
2019-05-11T05:30:24.915Z,69.06
2019-05-11T05:31:24.890Z,70.07
2019-05-11T05:32:24.888Z,69.67
2019-05-11T05:33:24.876Z,69.29
2019-05-11T05:34:24.897Z,69.73
2019-05-11T05:35:24.854Z,70.48
2019-05-11T05:36:24.846Z,71.29
2019-05-11T05:37:25.085Z,72.55
2019-05-11T05:38:24.841Z,72.55
2019-05-11T05:39:24.830Z,72.34
2019-05-11T05:40:24.795Z,72.52
2019-05-11T05:41:24.789Z,72.41
2019-05-11T05:42:24.785Z,72.72
2019-05-11T05:43:28.339Z,72.62
2019-05-11T05:44:27.700Z,71.91
2019-05-11T05:45:24.746Z,71.19
2019-05-11T05:46:24.735Z,71.19
2019-05-11T05:47:24.734Z,71.91
2019-05-11T05:48:24.709Z,71.39
2019-05-11T05:49:24.718Z,71.50
2019-05-11T05:50:24.685Z,71.80
2019-05-11T05:51:24.677Z,71.67
2019-05-11T05:52:24.670Z,70.95
2019-05-11T05:53:24.673Z,70.44
2019-05-11T05:54:24.660Z,70.31
2019-05-11T05:55:24.652Z,70.21
2019-05-11T05:56:24.635Z,70.07
2019-05-11T05:57:24.626Z,69.32
2019-05-11T05:58:24.611Z,68.92
2019-05-11T05:59:24.607Z,69.12
2019-05-11T06:00:24.583Z,68.92
2019-05-11T06:01:24.565Z,69.09
2019-05-11T06:02:24.553Z,67.53
2019-05-11T06:03:24.546Z,66.79
2019-05-11T06:04:24.553Z,66.25
2019-05-11T06:05:24.538Z,66.38
2019-05-11T06:06:24.526Z,66.08
2019-05-11T06:07:24.507Z,66.49
2019-05-11T06:08:24.498Z,66.08
2019-05-11T06:09:24.497Z,66.46
2019-05-11T06:10:24.478Z,66.05
2019-05-11T06:11:24.465Z,66.46
2019-05-11T06:12:24.453Z,66.58
2019-05-11T06:13:24.437Z,66.08
2019-05-11T06:14:24.439Z,66.41
2019-05-11T06:15:24.414Z,66.92
2019-05-11T06:16:24.418Z,66.82
2019-05-11T06:17:24.415Z,67.22
2019-05-11T06:18:24.398Z,66.79
2019-05-11T06:19:24.405Z,66.72
2019-05-11T06:20:24.378Z,66.61
2019-05-11T06:21:24.352Z,66.31
2019-05-11T06:22:24.353Z,66.72
2019-05-11T06:23:24.332Z,66.65
2019-05-11T06:24:24.326Z,66.18
2019-05-11T06:25:24.350Z,65.67
2019-05-11T06:26:24.299Z,64.87
2019-05-11T06:27:24.290Z,59.63
2019-05-11T06:28:24.283Z,56.30
2019-05-11T06:29:24.306Z,55.90
2019-05-11T06:30:24.261Z,52.94
2019-05-11T06:31:24.268Z,51.41
2019-05-11T06:32:24.235Z,49.05
2019-05-11T06:33:24.226Z,48.93
2019-05-11T06:34:24.248Z,47.58
2019-05-11T06:35:24.208Z,47.45
2019-05-11T06:36:24.219Z,45.68
2019-05-11T06:37:24.186Z,45.68
2019-05-11T06:38:24.179Z,44.35
2019-05-11T06:39:24.171Z,43.41
2019-05-11T06:40:24.165Z,42.77
2019-05-11T06:41:24.239Z,41.03
2019-05-11T06:42:24.135Z,39.82
2019-05-11T06:43:24.124Z,40.32
2019-05-11T06:44:24.106Z,40.20
2019-05-11T06:45:24.104Z,38.89
2019-05-11T06:46:24.087Z,39.15
2019-05-11T06:47:24.093Z,39.61
2019-05-11T06:48:24.070Z,40.52
2019-05-11T06:49:24.085Z,41.25
2019-05-11T06:50:24.056Z,40.81
2019-05-11T06:51:24.057Z,40.67
2019-05-11T06:52:24.044Z,38.74
2019-05-11T06:53:24.015Z,39.28
2019-05-11T06:54:23.995Z,39.98
2019-05-11T06:55:23.988Z,38.74
2019-05-11T06:56:23.990Z,38.10
2019-05-11T06:57:23.995Z,37.81
2019-05-11T06:58:23.955Z,37.68
2019-05-11T06:59:23.946Z,37.79
2019-05-11T07:00:23.950Z,37.87
2019-05-11T07:01:23.932Z,37.05
2019-05-11T07:02:23.923Z,36.47
2019-05-11T07:03:23.951Z,38.54
2019-05-11T07:04:23.888Z,37.96
2019-05-11T07:05:23.877Z,38.40
2019-05-11T07:06:28.076Z,39.81
2019-05-11T07:07:24.873Z,40.81
2019-05-11T07:08:23.868Z,40.69
2019-05-11T07:09:23.841Z,38.96
2019-05-11T07:10:23.849Z,37.76
2019-05-11T07:11:23.822Z,37.81
2019-05-11T07:12:27.336Z,39.43
2019-05-11T07:13:23.813Z,40.55
2019-05-11T07:14:23.813Z,39.75
2019-05-11T07:15:23.781Z,39.85
2019-05-11T07:16:23.764Z,40.51
2019-05-11T07:17:23.766Z,41.15
2019-05-11T07:18:23.755Z,43.24
2019-05-11T07:19:23.733Z,43.52
2019-05-11T07:20:23.736Z,43.08
2019-05-11T07:21:23.721Z,42.78
2019-05-11T07:22:23.703Z,42.55
2019-05-11T07:23:23.707Z,40.69
2019-05-11T07:24:23.673Z,40.97
2019-05-11T07:25:23.684Z,39.63
2019-05-11T07:26:23.654Z,39.25
2019-05-11T07:27:23.652Z,41.35
2019-05-11T07:28:23.665Z,42.54
2019-05-11T07:29:23.631Z,40.61
2019-05-11T07:30:23.619Z,40.67
2019-05-11T07:31:23.606Z,39.77
2019-05-11T07:32:26.128Z,41.19
2019-05-11T07:33:23.640Z,40.27
2019-05-11T07:34:23.573Z,40.05
2019-05-11T07:35:23.563Z,39.41
2019-05-11T07:36:23.549Z,37.96
2019-05-11T07:37:24.416Z,37.44
2019-05-11T07:38:23.534Z,37.19
2019-05-11T07:39:23.534Z,37.93
2019-05-11T07:40:23.511Z,39.99
2019-05-11T07:41:23.499Z,40.29
2019-05-11T07:42:23.492Z,39.15
2019-05-11T07:43:23.479Z,37.49
2019-05-11T07:44:35.053Z,37.64
2019-05-11T07:45:24.476Z,36.81
2019-05-11T07:46:23.463Z,39.57
2019-05-11T07:47:23.443Z,39.03
2019-05-11T07:48:23.416Z,38.29
2019-05-11T07:49:23.686Z,36.74
2019-05-11T07:50:23.423Z,35.41
2019-05-11T07:51:23.385Z,36.88
2019-05-11T07:52:23.378Z,37.18
2019-05-11T07:53:23.368Z,36.54
2019-05-11T07:54:23.366Z,35.68
2019-05-11T07:55:23.367Z,34.27
2019-05-11T07:56:23.335Z,33.11
2019-05-11T07:57:23.326Z,32.66
2019-05-11T07:58:23.313Z,31.85
2019-05-11T07:59:23.305Z,31.05
2019-05-11T08:00:23.326Z,31.67
2019-05-11T08:01:23.296Z,32.17
2019-05-11T08:02:23.274Z,30.89
2019-05-11T08:03:23.275Z,33.83
2019-05-11T08:04:23.256Z,33.93
2019-05-11T08:05:23.254Z,33.02
2019-05-11T08:06:23.253Z,33.86
2019-05-11T08:07:23.231Z,35.38
2019-05-11T08:08:25.227Z,34.13
2019-05-11T08:09:23.200Z,31.60
2019-05-11T08:10:23.219Z,32.12
2019-05-11T08:11:23.198Z,32.65
2019-05-11T08:12:23.190Z,33.12
2019-05-11T08:13:23.166Z,31.40
2019-05-11T08:14:23.154Z,31.23
2019-05-11T08:15:23.145Z,33.28
2019-05-11T08:16:23.148Z,35.60
2019-05-11T08:17:23.118Z,37.25
2019-05-11T08:18:23.115Z,37.75
2019-05-11T08:19:23.105Z,37.37
2019-05-11T08:20:23.085Z,39.47
2019-05-11T08:21:23.071Z,40.00
2019-05-11T08:22:23.166Z,39.42
2019-05-11T08:23:23.077Z,38.09
2019-05-11T08:24:23.058Z,37.57
2019-05-11T08:25:23.040Z,37.35
2019-05-11T08:26:23.035Z,37.53
2019-05-11T08:27:23.049Z,36.32
2019-05-11T08:28:23.007Z,33.38
2019-05-11T08:29:22.992Z,32.93
2019-05-11T08:30:22.981Z,32.72
2019-05-11T08:31:22.968Z,31.96
2019-05-11T08:32:22.966Z,30.13
2019-05-11T08:33:22.968Z,29.74
2019-05-11T08:34:22.946Z,29.74
2019-05-11T08:35:22.931Z,29.55
2019-05-11T08:36:22.927Z,30.23
2019-05-11T08:37:22.912Z,28.42
2019-05-11T08:38:22.928Z,29.77
2019-05-11T08:39:22.897Z,30.70
2019-05-11T08:40:22.887Z,33.00
2019-05-11T08:41:22.866Z,34.48
2019-05-11T08:42:22.861Z,35.49
2019-05-11T08:43:22.887Z,36.44
2019-05-11T08:44:22.845Z,36.25
2019-05-11T08:45:24.688Z,36.85
2019-05-11T08:46:22.823Z,37.62
2019-05-11T08:47:22.814Z,38.42
2019-05-11T08:48:22.800Z,38.98
2019-05-11T08:49:22.796Z,40.22
2019-05-11T08:50:22.780Z,40.73
2019-05-11T08:51:22.772Z,40.55
2019-05-11T08:52:22.757Z,40.97
2019-05-11T08:53:22.742Z,40.42
2019-05-11T08:54:22.747Z,39.66
2019-05-11T08:55:22.729Z,39.62
2019-05-11T08:56:22.720Z,38.09
2019-05-11T08:57:22.708Z,37.53
2019-05-11T08:58:22.717Z,36.61
2019-05-11T08:59:22.692Z,36.38
2019-05-11T09:00:22.674Z,35.10
2019-05-11T09:01:22.662Z,36.35
2019-05-11T09:02:22.649Z,36.07
2019-05-11T09:03:22.636Z,37.48
2019-05-11T09:04:22.650Z,38.22
2019-05-11T09:05:22.625Z,37.65
2019-05-11T09:06:22.605Z,39.12
2019-05-11T09:07:22.602Z,39.43
2019-05-11T09:08:22.599Z,40.16
2019-05-11T09:09:22.599Z,40.78
2019-05-11T09:10:22.575Z,39.98
2019-05-11T09:11:22.564Z,40.58
2019-05-11T09:12:22.542Z,40.42
2019-05-11T09:13:22.531Z,39.50
2019-05-11T09:14:22.579Z,38.60
2019-05-11T09:15:35.512Z,39.43
2019-05-11T09:16:23.529Z,39.88
2019-05-11T09:17:22.516Z,39.86
2019-05-11T09:18:22.500Z,40.48
2019-05-11T09:19:22.519Z,40.62
2019-05-11T09:20:22.457Z,41.53
2019-05-11T09:21:22.458Z,41.61
2019-05-11T09:22:22.446Z,40.66
2019-05-11T09:23:33.418Z,39.54
2019-05-11T09:24:23.439Z,39.37
2019-05-11T09:25:22.404Z,40.54
2019-05-11T09:26:22.406Z,41.13
2019-05-11T09:27:22.394Z,40.16
2019-05-11T09:28:22.376Z,39.92
2019-05-11T09:29:22.370Z,39.30
2019-05-11T09:30:22.388Z,38.28
2019-05-11T09:31:22.348Z,38.11
2019-05-11T09:32:22.347Z,39.58
2019-05-11T09:33:22.325Z,40.32
2019-05-11T09:34:22.354Z,40.42
2019-05-11T09:35:22.319Z,41.35
2019-05-11T09:36:22.315Z,41.55
2019-05-11T09:37:22.286Z,42.76
2019-05-11T09:38:22.265Z,41.41
2019-05-11T09:39:22.256Z,40.80
2019-05-11T09:40:22.252Z,41.05
2019-05-11T09:41:22.251Z,41.65
2019-05-11T09:42:22.232Z,41.85
2019-05-11T09:43:22.223Z,42.05
2019-05-11T09:44:22.199Z,41.53
2019-05-11T09:45:22.189Z,41.63
2019-05-11T09:46:22.189Z,41.53
2019-05-11T09:47:22.168Z,41.79
2019-05-11T09:48:22.167Z,41.06
2019-05-11T09:49:22.152Z,40.77
2019-05-11T09:50:22.149Z,39.76
2019-05-11T09:51:22.143Z,40.10
2019-05-11T09:52:22.117Z,40.60
2019-05-11T09:53:22.107Z,40.48
2019-05-11T09:54:22.105Z,41.06
2019-05-11T09:55:22.101Z,40.95
2019-05-11T09:56:22.099Z,39.56
2019-05-11T09:57:22.062Z,40.78
2019-05-11T09:58:22.048Z,41.33
2019-05-11T09:59:22.038Z,40.72
2019-05-11T10:00:22.037Z,41.35
2019-05-11T10:01:22.026Z,42.80
2019-05-11T10:02:22.039Z,43.40
2019-05-11T10:03:22.006Z,42.55
2019-05-11T10:04:21.994Z,42.54
2019-05-11T10:05:21.982Z,41.39
2019-05-11T10:06:21.970Z,41.06
2019-05-11T10:07:21.977Z,40.55
2019-05-11T10:08:21.953Z,39.84
2019-05-11T10:09:21.941Z,39.96
2019-05-11T10:10:21.925Z,41.37
2019-05-11T10:11:21.913Z,40.28
2019-05-11T10:12:21.946Z,40.89
2019-05-11T10:13:21.895Z,39.96
2019-05-11T10:14:21.885Z,39.86
2019-05-11T10:15:21.881Z,40.48
2019-05-11T10:16:21.855Z,40.70
2019-05-11T10:17:21.862Z,41.69
2019-05-11T10:18:24.200Z,40.99
2019-05-11T10:19:21.830Z,40.46
2019-05-11T10:20:21.821Z,40.60
2019-05-11T10:21:21.814Z,42.15
2019-05-11T10:22:21.811Z,42.58
2019-05-11T10:23:21.792Z,43.28
2019-05-11T10:24:21.771Z,43.10
2019-05-11T10:25:21.766Z,43.20
2019-05-11T10:26:21.754Z,43.30
2019-05-11T10:27:21.766Z,43.20
2019-05-11T10:28:21.731Z,43.20
2019-05-11T10:29:21.725Z,43.80
2019-05-11T10:30:21.707Z,42.68
2019-05-11T10:31:21.694Z,42.25
2019-05-11T10:32:21.695Z,42.86
2019-05-11T10:33:21.691Z,42.86
2019-05-11T10:34:21.669Z,42.55
2019-05-11T10:35:21.658Z,42.88
2019-05-11T10:36:21.650Z,43.51
2019-05-11T10:37:21.630Z,43.32
2019-05-11T10:38:21.641Z,43.52
2019-05-11T10:39:21.609Z,43.73
2019-05-11T10:40:21.609Z,44.03
2019-05-11T10:41:21.602Z,44.46
2019-05-11T10:42:21.574Z,45.14
2019-05-11T10:43:21.582Z,43.95
2019-05-11T10:44:21.571Z,44.88
2019-05-11T10:45:21.553Z,45.20
2019-05-11T10:46:23.448Z,44.88
2019-05-11T10:47:21.529Z,44.86
2019-05-11T10:48:21.512Z,45.12
2019-05-11T10:49:21.523Z,44.62
2019-05-11T10:50:21.492Z,44.13
2019-05-11T10:51:21.484Z,44.23
2019-05-11T10:52:21.476Z,44.13
2019-05-11T10:53:21.464Z,44.74
2019-05-11T10:54:21.453Z,44.82
2019-05-11T10:55:21.463Z,44.39
2019-05-11T10:56:21.435Z,43.46
2019-05-11T10:57:21.424Z,43.32
2019-05-11T10:58:21.409Z,43.40
2019-05-11T10:59:21.400Z,42.98
2019-05-11T11:00:21.395Z,41.87
2019-05-11T11:01:21.377Z,41.27
2019-05-11T11:02:21.368Z,41.27
2019-05-11T11:03:21.354Z,41.47
2019-05-11T11:04:21.346Z,42.38
2019-05-11T11:05:21.363Z,41.55
2019-05-11T11:06:21.327Z,41.67
2019-05-11T11:07:21.334Z,42.38
2019-05-11T11:08:21.298Z,42.90
2019-05-11T11:09:21.284Z,43.60
2019-05-11T11:10:21.278Z,42.68
2019-05-11T11:11:21.279Z,42.66
2019-05-11T11:12:21.259Z,41.63
2019-05-11T11:13:21.257Z,40.84
2019-05-11T11:14:21.259Z,41.91
2019-05-11T11:15:21.240Z,43.73
2019-05-11T11:16:35.750Z,43.42
2019-05-11T11:17:22.236Z,43.04
2019-05-11T11:18:22.090Z,43.26
2019-05-11T11:19:21.196Z,44.17
2019-05-11T11:20:21.168Z,43.97
2019-05-11T11:21:23.009Z,45.16
2019-05-11T11:22:35.949Z,44.53
2019-05-11T11:23:22.133Z,43.30
2019-05-11T11:24:21.135Z,42.90
2019-05-11T11:25:21.121Z,42.90
2019-05-11T11:26:21.127Z,42.90
2019-05-11T11:27:21.107Z,42.78
2019-05-11T11:28:21.082Z,42.19
2019-05-11T11:29:21.074Z,42.52
2019-05-11T11:30:21.075Z,43.65
2019-05-11T11:31:21.068Z,43.34
2019-05-11T11:32:21.041Z,43.14
2019-05-11T11:33:21.026Z,43.57
2019-05-11T11:34:21.017Z,43.34
2019-05-11T11:35:21.007Z,43.48
2019-05-11T11:36:21.016Z,44.01
2019-05-11T11:37:21.019Z,43.32
2019-05-11T11:38:21.046Z,44.84
2019-05-11T11:39:20.969Z,45.22
2019-05-11T11:40:20.955Z,45.10
2019-05-11T11:41:20.960Z,44.87
2019-05-11T11:42:20.937Z,43.66
2019-05-11T11:43:20.919Z,44.05
2019-05-11T11:44:20.931Z,43.74
2019-05-11T11:45:20.909Z,43.54
2019-05-11T11:46:20.968Z,43.24
2019-05-11T11:47:21.814Z,43.95
2019-05-11T11:48:20.877Z,43.62
2019-05-11T11:49:20.865Z,43.40
2019-05-11T11:50:20.874Z,43.32
2019-05-11T11:51:20.859Z,43.20
2019-05-11T11:52:20.836Z,43.40
2019-05-11T11:53:20.835Z,43.30
2019-05-11T11:54:20.799Z,42.72
2019-05-11T11:55:20.799Z,43.24
2019-05-11T11:56:20.792Z,43.37
2019-05-11T11:57:21.140Z,45.02
2019-05-11T11:58:29.079Z,44.82
2019-05-11T11:59:20.752Z,46.23
2019-05-11T12:00:20.754Z,45.20
2019-05-11T12:01:20.727Z,46.21
2019-05-11T12:02:20.735Z,45.00
2019-05-11T12:03:20.710Z,44.87
2019-05-11T12:04:20.698Z,45.07
2019-05-11T12:05:20.684Z,46.19
2019-05-11T12:06:20.703Z,44.95
2019-05-11T12:07:20.672Z,45.26
2019-05-11T12:08:20.655Z,43.95
2019-05-11T12:09:20.656Z,44.78
2019-05-11T12:10:20.651Z,44.85
2019-05-11T12:11:20.625Z,44.75
2019-05-11T12:12:20.622Z,45.06
2019-05-11T12:13:20.593Z,45.56
2019-05-11T12:14:20.597Z,45.46
2019-05-11T12:15:20.589Z,45.58
2019-05-11T12:16:20.580Z,45.20
2019-05-11T12:17:20.571Z,44.92
2019-05-11T12:18:20.543Z,46.36
2019-05-11T12:19:20.543Z,46.05
2019-05-11T12:20:20.528Z,47.56
2019-05-11T12:21:20.530Z,47.47
2019-05-11T12:22:20.537Z,48.15
2019-05-11T12:23:20.490Z,47.04
2019-05-11T12:24:20.473Z,47.44
2019-05-11T12:25:20.466Z,48.75
2019-05-11T12:26:20.451Z,47.72
2019-05-11T12:27:20.459Z,48.00
2019-05-11T12:28:20.437Z,48.58
2019-05-11T12:29:20.432Z,47.67
2019-05-11T12:30:20.419Z,47.30
2019-05-11T12:31:20.411Z,48.81
2019-05-11T12:32:20.418Z,48.49
2019-05-11T12:33:20.393Z,48.58
2019-05-11T12:34:20.378Z,47.67
2019-05-11T12:35:20.373Z,47.07
2019-05-11T12:36:20.346Z,47.30
2019-05-11T12:37:22.120Z,47.27
2019-05-11T12:38:20.346Z,47.98
2019-05-11T12:39:20.324Z,48.08
2019-05-11T12:40:20.305Z,48.89
2019-05-11T12:41:20.299Z,47.96
2019-05-11T12:42:20.288Z,48.03
2019-05-11T12:43:22.487Z,47.43
2019-05-11T12:44:20.259Z,47.53
2019-05-11T12:45:20.248Z,48.44
2019-05-11T12:46:20.235Z,47.15
2019-05-11T12:47:24.819Z,47.35
2019-05-11T12:48:21.241Z,47.55
2019-05-11T12:49:20.215Z,47.45
2019-05-11T12:50:20.190Z,47.35
2019-05-11T12:51:20.185Z,48.49
2019-05-11T12:52:20.176Z,48.69